Time;durP1;ratioP1;P1;durP2;ratioP2;P2;SDS_P1;SDS_P2;PMS_P1;PMS_P2;Temp;Humidity;BMP_temperature;BMP_pressure;BME280_temperature;BME280_humidity;BME280_pressure;Samples;Min_cycle;Max_cycle;Signal;HPM_P1;HPM_P2
2023/05/10 00:00:23;;;;;;;0.93;0.70;;;;;;;15.24;100.00;95626.63;5043398;28;20194;-70
2023/05/10 00:02:50;;;;;;;0.70;0.60;;;;;;;15.26;100.00;95630.66;5042847;28;20201;-70
2023/05/10 00:05:17;;;;;;;0.70;0.68;;;;;;;15.34;100.00;95623.22;5043249;28;20207;-69
2023/05/10 00:07:45;;;;;;;1.13;1.00;;;;;;;15.36;100.00;95625.66;5043054;28;20213;-69
2023/05/10 00:10:12;;;;;;;0.40;0.40;;;;;;;15.27;100.00;95619.00;5042490;28;20252;-69
2023/05/10 00:12:38;;;;;;;0.60;0.60;;;;;;;15.24;100.00;95624.78;5042923;28;20197;-70
2023/05/10 00:15:06;;;;;;;0.80;0.70;;;;;;;15.27;100.00;95624.31;5042899;28;20208;-70
2023/05/10 00:17:32;;;;;;;0.45;0.40;;;;;;;15.18;100.00;95620.31;5042446;28;20563;-71
2023/05/10 00:19:59;;;;;;;0.57;0.57;;;;;;;15.03;100.00;95619.03;5043026;28;20629;-70
2023/05/10 00:22:25;;;;;;;0.63;0.40;;;;;;;15.10;100.00;95620.59;5043142;28;20201;-70
2023/05/10 00:24:53;;;;;;;0.68;0.60;;;;;;;15.20;100.00;95607.63;5042913;28;20220;-71
2023/05/10 00:27:19;;;;;;;0.38;0.38;;;;;;;15.01;100.00;95618.47;5041860;28;20225;-70
2023/05/10 00:29:46;;;;;;;0.85;0.70;;;;;;;15.05;100.00;95615.13;5042643;28;20504;-71
2023/05/10 00:32:13;;;;;;;0.30;0.30;;;;;;;14.87;100.00;95617.75;5042738;28;20197;-71
2023/05/10 00:34:40;;;;;;;0.60;0.60;;;;;;;14.95;100.00;95611.38;5042674;28;20201;-70
2023/05/10 00:37:06;;;;;;;0.77;0.70;;;;;;;15.00;100.00;95607.00;5042528;28;20260;-69
2023/05/10 00:39:33;;;;;;;0.50;0.50;;;;;;;14.96;100.00;95611.13;5042184;28;20201;-69
2023/05/10 00:42:01;;;;;;;0.70;0.70;;;;;;;15.00;100.00;95614.97;5042163;28;20205;-70
2023/05/10 00:44:28;;;;;;;0.50;0.50;;;;;;;15.00;100.00;95612.31;5042343;28;20221;-70
2023/05/10 00:46:54;;;;;;;1.48;0.70;;;;;;;14.87;100.00;95612.44;5042671;28;20260;-70
2023/05/10 00:49:21;;;;;;;0.47;0.47;;;;;;;14.91;100.00;95608.31;5042149;28;20586;-70
2023/05/10 00:51:48;;;;;;;0.90;0.77;;;;;;;14.90;100.00;95609.34;5042365;28;20197;-70
2023/05/10 00:54:16;;;;;;;2.67;0.70;;;;;;;14.74;100.00;95601.97;5042689;28;20197;-70
2023/05/10 00:56:48;;;;;;;1.15;0.90;;;;;;;14.81;100.00;95608.00;5042407;28;20217;-69
2023/05/10 00:59:17;;;;;;;0.75;0.75;;;;;;;14.89;100.00;95601.63;5042203;28;20227;-70
2023/05/10 01:01:44;;;;;;;1.42;0.93;;;;;;;14.87;100.00;95607.13;5042464;28;20208;-70
2023/05/10 01:04:12;;;;;;;0.55;0.45;;;;;;;14.88;100.00;95606.13;5042244;28;20223;-71
2023/05/10 01:06:39;;;;;;;0.98;0.70;;;;;;;14.83;100.00;95603.31;5042129;28;20227;-70
2023/05/10 01:09:06;;;;;;;0.50;0.50;;;;;;;14.80;100.00;95602.91;5041834;28;20223;-70
2023/05/10 01:11:32;;;;;;;0.50;0.50;;;;;;;14.74;100.00;95607.25;5041988;28;20279;-69
2023/05/10 01:13:59;;;;;;;0.63;0.60;;;;;;;14.72;100.00;95605.84;5042469;28;20216;-69
2023/05/10 01:16:28;;;;;;;0.80;0.75;;;;;;;14.74;100.00;95604.63;5042386;28;21022;-71
2023/05/10 01:18:55;;;;;;;0.50;0.50;;;;;;;14.63;100.00;95599.19;5042086;28;20243;-69
2023/05/10 01:21:29;;;;;;;0.30;0.30;;;;;;;14.63;100.00;95602.66;5045121;28;20193;-70
2023/05/10 01:24:19;;;;;;;0.75;0.63;;;;;;;14.73;100.00;95610.94;5046275;28;20661;-71
2023/05/10 01:27:20;;;;;;;0.50;0.50;;;;;;;14.79;100.00;95610.09;5046049;28;20225;-69
2023/05/10 01:30:20;;;;;;;0.40;0.40;;;;;;;14.75;100.00;95611.53;4983770;28;20750;-70
2023/05/10 01:32:53;;;;;;;0.60;0.57;;;;;;;14.64;100.00;95614.88;5046250;28;20197;-70
2023/05/10 01:35:27;;;;;;;0.43;0.43;;;;;;;14.69;100.00;95607.09;5045872;28;20205;-69
2023/05/10 01:38:05;;;;;;;0.77;0.65;;;;;;;14.64;100.00;95617.53;5045466;28;20585;-71
2023/05/10 01:40:37;;;;;;;0.85;0.60;;;;;;;14.64;100.00;95616.75;5045903;28;20201;-68
2023/05/10 01:43:07;;;;;;;0.50;0.50;;;;;;;14.51;100.00;95616.84;5045980;28;20204;-69
2023/05/10 01:45:39;;;;;;;1.95;0.40;;;;;;;14.57;100.00;95621.28;5045655;28;20717;-69
2023/05/10 01:48:10;;;;;;;0.50;0.50;;;;;;;14.54;100.00;95619.06;5045568;28;20216;-70
2023/05/10 01:50:39;;;;;;;0.75;0.55;;;;;;;14.49;100.00;95615.44;5046016;28;20252;-69
2023/05/10 01:53:08;;;;;;;2.30;0.82;;;;;;;14.50;100.00;95620.53;5045888;28;20201;-69
2023/05/10 01:55:40;;;;;;;0.70;0.63;;;;;;;14.45;100.00;95612.41;5045638;28;20901;-70
2023/05/10 01:58:10;;;;;;;0.68;0.60;;;;;;;14.54;100.00;95626.22;5045058;28;20205;-69
2023/05/10 02:00:40;;;;;;;0.47;0.45;;;;;;;14.47;100.00;95620.13;5045654;28;20209;-70
2023/05/10 02:03:11;;;;;;;0.47;0.47;;;;;;;14.39;100.00;95633.66;5045633;28;20220;-70
2023/05/10 02:05:38;;;;;;;0.47;0.40;;;;;;;14.28;100.00;95632.50;5045553;28;20308;-69
2023/05/10 02:08:08;;;;;;;0.30;0.30;;;;;;;14.37;100.00;95633.03;5044717;28;20284;-69
2023/05/10 02:10:35;;;;;;;0.40;0.40;;;;;;;14.41;100.00;95637.72;5045405;28;20228;-69
2023/05/10 02:13:04;;;;;;;0.40;0.40;;;;;;;14.46;100.00;95640.53;5045363;28;20549;-69
2023/05/10 02:15:31;;;;;;;0.50;0.50;;;;;;;14.37;100.00;95635.69;5045512;28;20197;-68
2023/05/10 02:18:00;;;;;;;0.77;0.77;;;;;;;14.44;100.00;95642.56;5044767;28;20241;-69
2023/05/10 02:20:29;;;;;;;0.68;0.60;;;;;;;14.43;100.00;95634.84;5045064;28;20205;-69
2023/05/10 02:22:58;;;;;;;0.30;0.30;;;;;;;14.48;100.00;95642.97;5044038;28;20209;-69
2023/05/10 02:25:26;;;;;;;0.30;0.30;;;;;;;14.35;100.00;95643.88;5044989;28;20304;-70
2023/05/10 02:27:55;;;;;;;0.30;0.30;;;;;;;14.43;100.00;95651.56;5044373;28;20205;-69
2023/05/10 02:30:23;;;;;;;0.35;0.35;;;;;;;14.35;100.00;95648.38;5044906;28;20553;-69
2023/05/10 02:32:50;;;;;;;0.45;0.45;;;;;;;14.26;100.00;95655.75;5044049;28;20584;-69
2023/05/10 02:35:17;;;;;;;0.30;0.30;;;;;;;14.29;100.00;95655.31;5045778;28;20204;-69
2023/05/10 02:37:47;;;;;;;0.95;0.73;;;;;;;14.37;100.00;95649.78;5045094;28;20559;-71
2023/05/10 02:40:16;;;;;;;0.30;0.30;;;;;;;14.35;100.00;95653.66;5045444;28;20560;-71
2023/05/10 02:42:44;;;;;;;0.38;0.38;;;;;;;14.20;100.00;95646.00;5045435;28;20205;-68
2023/05/10 02:45:14;;;;;;;0.30;0.30;;;;;;;14.23;100.00;95650.88;5045871;28;20208;-71
2023/05/10 02:47:40;;;;;;;0.35;0.30;;;;;;;14.17;100.00;95648.28;5044727;28;20513;-69
2023/05/10 02:50:08;;;;;;;0.30;0.30;;;;;;;14.25;100.00;95651.47;5045977;28;20221;-70
2023/05/10 02:52:41;;;;;;;0.30;0.30;;;;;;;14.28;100.00;95648.41;5045564;28;20209;-68
2023/05/10 02:55:12;;;;;;;0.32;0.32;;;;;;;14.18;100.00;95661.31;5045730;28;20205;-69
2023/05/10 02:57:43;;;;;;;0.20;0.20;;;;;;;14.13;100.00;95671.72;5044774;28;20322;-69
2023/05/10 03:00:11;;;;;;;0.35;0.35;;;;;;;13.98;100.00;95681.75;5045353;28;20509;-68
2023/05/10 03:02:37;;;;;;;0.20;0.20;;;;;;;13.87;100.00;95680.78;5045616;28;20205;-69
2023/05/10 03:05:04;;;;;;;0.73;0.73;;;;;;;13.75;100.00;95685.94;5045035;28;20205;-71
2023/05/10 03:07:31;;;;;;;0.30;0.30;;;;;;;13.77;100.00;95681.25;5044400;28;20579;-72
2023/05/10 03:09:57;;;;;;;0.20;0.20;;;;;;;13.60;100.00;95689.84;5044955;28;20217;-69
2023/05/10 03:12:42;;;;;;;0.20;0.20;;;;;;;13.67;100.00;95688.00;5044238;28;20197;-71
2023/05/10 03:15:14;;;;;;;0.80;0.60;;;;;;;13.66;100.00;95697.78;5044214;28;20221;-68
2023/05/10 03:17:48;;;;;;;0.20;0.20;;;;;;;13.72;100.00;95693.47;5043523;28;20201;-69
2023/05/10 03:20:23;;;;;;;0.30;0.30;;;;;;;13.68;100.00;95698.41;5043990;28;20572;-70
2023/05/10 03:22:56;;;;;;;0.28;0.28;;;;;;;13.79;100.00;95694.28;5044186;28;20228;-70
2023/05/10 03:25:23;;;;;;;0.30;0.30;;;;;;;13.76;100.00;95703.44;5044526;28;20212;-70
2023/05/10 03:27:52;;;;;;;0.30;0.30;;;;;;;13.81;100.00;95703.63;5043410;28;20204;-69
2023/05/10 03:30:20;;;;;;;0.30;0.30;;;;;;;13.82;100.00;95702.59;5044036;28;20231;-68
2023/05/10 03:32:46;;;;;;;0.20;0.20;;;;;;;13.58;100.00;95705.97;5043863;28;20216;-69
2023/05/10 03:35:14;;;;;;;0.20;0.20;;;;;;;13.47;100.00;95722.47;5043822;28;20202;-70
2023/05/10 03:37:40;;;;;;;0.27;0.27;;;;;;;13.60;100.00;95718.97;5043137;28;21059;-69
2023/05/10 03:40:08;;;;;;;0.30;0.30;;;;;;;13.56;100.00;95715.91;5043781;28;20201;-69
2023/05/10 03:42:35;;;;;;;0.20;0.20;;;;;;;13.50;100.00;95723.88;5043714;28;20204;-69
2023/05/10 03:45:02;;;;;;;0.30;0.30;;;;;;;13.38;100.00;95723.69;5042454;28;20222;-69
2023/05/10 03:47:29;;;;;;;0.30;0.30;;;;;;;13.33;100.00;95729.81;5042869;28;20225;-69
2023/05/10 03:49:55;;;;;;;0.20;0.20;;;;;;;13.37;100.00;95721.25;5043557;28;20287;-69
2023/05/10 03:52:22;;;;;;;0.30;0.30;;;;;;;13.28;100.00;95721.69;5043699;28;20201;-68
2023/05/10 03:54:48;;;;;;;0.30;0.30;;;;;;;13.20;100.00;95727.19;5043249;28;20205;-70
2023/05/10 03:57:15;;;;;;;0.40;0.40;;;;;;;13.31;100.00;95730.00;5043262;28;20221;-70
2023/05/10 03:59:41;;;;;;;0.30;0.20;;;;;;;13.31;100.00;95734.50;5042948;28;20276;-69
2023/05/10 04:02:09;;;;;;;0.30;0.30;;;;;;;13.47;100.00;95733.03;5043653;28;20194;-70
2023/05/10 04:04:36;;;;;;;0.20;0.20;;;;;;;13.49;100.00;95728.38;5043057;28;20209;-70
2023/05/10 04:07:02;;;;;;;0.40;0.40;;;;;;;13.45;100.00;95732.47;5043051;28;20235;-69
2023/05/10 04:09:29;;;;;;;2.47;0.30;;;;;;;13.61;100.00;95739.94;5042705;28;20294;-69
2023/05/10 04:11:55;;;;;;;0.25;0.25;;;;;;;13.48;100.00;95734.69;5042961;28;20224;-69
2023/05/10 04:14:22;;;;;;;0.30;0.30;;;;;;;13.60;100.00;95729.56;5043403;28;20210;-69
2023/05/10 04:16:48;;;;;;;0.20;0.20;;;;;;;13.55;100.00;95735.47;5043165;28;20228;-68
2023/05/10 04:19:16;;;;;;;0.20;0.20;;;;;;;13.63;100.00;95737.91;5042548;28;20579;-69
2023/05/10 04:21:42;;;;;;;0.20;0.20;;;;;;;13.57;100.00;95738.75;5042857;28;20201;-70
2023/05/10 04:24:09;;;;;;;0.30;0.30;;;;;;;13.59;100.00;95728.75;5043078;28;20205;-70
2023/05/10 04:26:35;;;;;;;0.20;0.20;;;;;;;13.64;100.00;95733.41;5043186;28;20232;-69
2023/05/10 04:29:02;;;;;;;0.20;0.20;;;;;;;13.64;100.00;95733.41;5042523;28;20890;-70
2023/05/10 04:31:28;;;;;;;0.20;0.20;;;;;;;13.74;100.00;95731.97;5043067;28;20248;-70
2023/05/10 04:33:55;;;;;;;0.50;0.50;;;;;;;13.74;100.00;95739.09;5042582;28;20681;-69
2023/05/10 04:36:23;;;;;;;0.30;0.30;;;;;;;13.83;100.00;95743.94;5042727;28;20225;-68
2023/05/10 04:38:49;;;;;;;0.25;0.25;;;;;;;13.79;100.00;95744.59;5042277;28;20201;-69
2023/05/10 04:41:15;;;;;;;0.30;0.30;;;;;;;13.81;100.00;95740.72;5042469;28;20220;-69
2023/05/10 04:43:42;;;;;;;0.30;0.30;;;;;;;13.81;100.00;95746.00;5042467;28;20204;-70
2023/05/10 04:46:08;;;;;;;0.88;0.88;;;;;;;13.84;100.00;95750.88;5042480;28;20743;-69
2023/05/10 04:48:35;;;;;;;0.20;0.20;;;;;;;13.75;100.00;95746.84;5041785;28;20200;-70
2023/05/10 04:51:03;;;;;;;0.28;0.28;;;;;;;13.88;100.00;95756.59;5042802;28;20280;-70
2023/05/10 04:53:31;;;;;;;0.20;0.20;;;;;;;13.87;100.00;95760.25;5042541;28;20208;-70
2023/05/10 04:55:57;;;;;;;0.40;0.40;;;;;;;13.83;100.00;95759.84;5041540;28;20709;-70
2023/05/10 04:58:24;;;;;;;0.25;0.25;;;;;;;13.93;100.00;95768.16;5041723;28;20201;-68
2023/05/10 05:00:50;;;;;;;0.30;0.30;;;;;;;13.91;100.00;95766.75;5042428;28;20197;-69
2023/05/10 05:03:17;;;;;;;0.35;0.35;;;;;;;13.94;100.00;95769.81;5042372;28;20208;-70
2023/05/10 05:05:44;;;;;;;1.35;0.77;;;;;;;13.99;100.00;95780.59;5042109;28;20217;-68
2023/05/10 05:08:11;;;;;;;0.65;0.65;;;;;;;13.94;100.00;95772.47;5041966;28;20684;-70
2023/05/10 05:10:39;;;;;;;0.65;0.63;;;;;;;13.80;100.00;95778.81;5041950;28;20232;-70
2023/05/10 05:13:05;;;;;;;0.50;0.50;;;;;;;13.90;100.00;95775.72;5042282;28;20201;-69
2023/05/10 05:15:32;;;;;;;0.20;0.20;;;;;;;13.92;100.00;95782.44;5042641;28;20201;-70
2023/05/10 05:17:58;;;;;;;0.40;0.40;;;;;;;13.95;100.00;95782.03;5042502;28;20209;-69
2023/05/10 05:20:24;;;;;;;0.40;0.40;;;;;;;13.94;100.00;95784.88;5042272;28;20253;-69
2023/05/10 05:22:51;;;;;;;0.60;0.57;;;;;;;14.00;100.00;95787.50;5042244;28;20224;-69
2023/05/10 05:25:17;;;;;;;0.40;0.40;;;;;;;14.11;100.00;95789.53;5041868;28;20678;-69
2023/05/10 05:27:45;;;;;;;0.30;0.30;;;;;;;14.13;100.00;95784.88;5041596;28;20677;-69
2023/05/10 05:30:12;;;;;;;0.55;0.50;;;;;;;14.07;100.00;95783.00;5042204;28;20421;-69
2023/05/10 05:32:38;;;;;;;0.40;0.40;;;;;;;14.09;100.00;95783.63;5041839;28;20321;-69
2023/05/10 05:35:06;;;;;;;0.98;0.40;;;;;;;14.23;100.00;95788.69;5042006;28;20212;-69
2023/05/10 05:37:32;;;;;;;0.82;0.40;;;;;;;14.13;100.00;95790.16;5041438;28;20705;-69
2023/05/10 05:40:00;;;;;;;0.45;0.40;;;;;;;14.24;100.00;95792.97;5041916;28;20205;-70
2023/05/10 05:42:27;;;;;;;0.40;0.40;;;;;;;14.22;100.00;95797.66;5042117;28;20193;-69
2023/05/10 05:44:55;;;;;;;0.38;0.32;;;;;;;14.39;100.00;95798.00;5042308;28;20201;-69
2023/05/10 05:47:21;;;;;;;0.85;0.77;;;;;;;14.29;100.00;95800.28;5041600;28;20266;-69
2023/05/10 05:49:48;;;;;;;1.15;0.32;;;;;;;14.27;100.00;95799.69;5041941;28;20507;-69
2023/05/10 05:52:14;;;;;;;0.55;0.55;;;;;;;14.28;100.00;95809.25;5041833;28;20242;-69
2023/05/10 05:54:40;;;;;;;0.30;0.30;;;;;;;14.34;100.00;95803.13;5042057;28;20201;-69
2023/05/10 05:57:07;;;;;;;0.30;0.30;;;;;;;14.32;100.00;95807.81;5041938;28;20985;-70
2023/05/10 05:59:33;;;;;;;1.30;0.80;;;;;;;14.28;100.00;95809.25;5041579;28;20205;-70
2023/05/10 06:02:01;;;;;;;0.65;0.40;;;;;;;14.43;100.00;95802.66;5041732;28;20205;-70
2023/05/10 06:04:28;;;;;;;0.40;0.40;;;;;;;14.35;100.00;95804.75;5041487;28;20235;-68
2023/05/10 06:06:54;;;;;;;0.55;0.55;;;;;;;14.43;100.00;95802.66;5042151;28;20248;-69
2023/05/10 06:09:21;;;;;;;0.47;0.47;;;;;;;14.38;100.00;95812.28;5044967;28;20204;-69
2023/05/10 06:11:47;;;;;;;2.42;0.63;;;;;;;14.44;100.00;95822.03;5045264;28;20228;-69
2023/05/10 06:14:13;;;;;;;0.40;0.40;;;;;;;14.43;100.00;95820.41;5045622;28;20237;-69
2023/05/10 06:16:40;;;;;;;2.90;0.73;;;;;;;14.46;100.00;95814.69;5045143;28;20221;-69
2023/05/10 06:19:08;;;;;;;0.20;0.20;;;;;;;14.50;100.00;95816.72;5044636;28;20288;-69
2023/05/10 06:21:34;;;;;;;0.43;0.30;;;;;;;14.36;100.00;95820.44;5045318;28;20193;-70
2023/05/10 06:24:01;;;;;;;0.80;0.50;;;;;;;14.36;100.00;95830.25;5045309;28;20201;-70
2023/05/10 06:26:27;;;;;;;0.65;0.55;;;;;;;14.33;100.00;95825.34;5045291;28;20721;-70
2023/05/10 06:28:53;;;;;;;0.93;0.50;;;;;;;14.41;100.00;95830.41;5044704;28;20208;-70
2023/05/10 06:31:20;;;;;;;0.40;0.40;;;;;;;14.69;100.00;95835.16;5044531;28;20224;-70
2023/05/10 06:33:47;;;;;;;0.55;0.50;;;;;;;14.72;100.00;95836.59;5045147;28;20740;-69
2023/05/10 06:36:15;;;;;;;0.80;0.50;;;;;;;14.66;100.00;95838.25;5044548;28;20217;-69
2023/05/10 06:38:41;;;;;;;0.82;0.77;;;;;;;14.62;100.00;95836.22;5044290;28;20206;-69
2023/05/10 06:41:07;;;;;;;0.30;0.30;;;;;;;14.64;100.00;95837.66;5044921;28;20197;-69
2023/05/10 06:43:34;;;;;;;0.30;0.30;;;;;;;14.73;100.00;95841.69;5045021;28;20204;-69
2023/05/10 06:46:01;;;;;;;0.30;0.30;;;;;;;14.64;100.00;95850.09;5044536;28;20604;-69
2023/05/10 06:48:27;;;;;;;0.20;0.20;;;;;;;14.70;100.00;95841.28;5044227;28;20209;-69
2023/05/10 06:50:54;;;;;;;0.52;0.43;;;;;;;14.78;100.00;95841.88;5044603;28;20291;-69
2023/05/10 06:53:22;;;;;;;0.75;0.38;;;;;;;14.91;100.00;95851.59;5044875;28;20452;-69
2023/05/10 06:55:50;;;;;;;0.30;0.30;;;;;;;15.15;100.00;95843.69;5044626;28;20221;-69
2023/05/10 06:58:16;;;;;;;0.35;0.35;;;;;;;14.94;100.00;95848.50;5044296;28;20201;-69
2023/05/10 07:00:43;;;;;;;0.20;0.20;;;;;;;14.95;100.00;95845.63;5044449;28;20229;-69
2023/05/10 07:03:10;;;;;;;0.32;0.32;;;;;;;15.19;100.00;95854.69;5044242;28;20205;-69
2023/05/10 07:05:36;;;;;;;0.40;0.40;;;;;;;15.18;100.00;95847.75;5044747;28;20228;-70
2023/05/10 07:08:03;;;;;;;0.60;0.60;;;;;;;15.05;100.00;95851.31;5043777;28;20903;-70
2023/05/10 07:10:30;;;;;;;0.38;0.38;;;;;;;15.03;100.00;95850.72;5044442;28;20212;-69
2023/05/10 07:12:57;;;;;;;0.93;0.93;;;;;;;14.95;100.00;95858.09;5044674;28;20228;-68
2023/05/10 07:15:23;;;;;;;0.40;0.40;;;;;;;15.13;100.00;95851.03;5044651;28;20202;-68
2023/05/10 07:17:51;;;;;;;1.65;0.47;;;;;;;15.21;100.00;95852.66;5044808;28;20205;-69
2023/05/10 07:20:18;;;;;;;1.00;0.47;;;;;;;15.23;100.00;95855.94;5044177;28;20208;-69
2023/05/10 07:22:44;;;;;;;0.32;0.32;;;;;;;15.15;100.00;95859.63;5044052;28;20661;-69
2023/05/10 07:25:11;;;;;;;0.73;0.52;;;;;;;14.96;100.00;95854.44;5043862;28;20205;-70
2023/05/10 07:27:39;;;;;;;0.30;0.30;;;;;;;15.16;100.00;95849.78;5043550;28;20248;-69
2023/05/10 07:30:06;;;;;;;0.47;0.47;;;;;;;15.14;100.00;95852.66;5043669;28;20201;-70
2023/05/10 07:32:33;;;;;;;0.82;0.68;;;;;;;15.13;100.00;95856.34;5043833;28;20326;-69
2023/05/10 07:35:00;;;;;;;1.33;0.73;;;;;;;15.23;100.00;95850.63;5044291;28;20591;-69
2023/05/10 07:37:26;;;;;;;4.95;0.70;;;;;;;15.35;100.00;95849.69;5043232;28;20220;-70
2023/05/10 07:39:52;;;;;;;0.60;0.55;;;;;;;15.35;100.00;95849.69;5043729;28;20505;-70
2023/05/10 07:42:19;;;;;;;0.98;0.75;;;;;;;15.36;100.00;95851.31;5043964;28;20202;-70
2023/05/10 07:44:47;;;;;;;0.45;0.40;;;;;;;15.28;100.00;95844.44;5043418;28;20201;-70
2023/05/10 07:47:13;;;;;;;0.55;0.43;;;;;;;15.31;100.00;95848.50;5043257;28;20687;-70
2023/05/10 07:49:40;;;;;;;0.40;0.40;;;;;;;15.47;100.00;95851.44;5043743;28;20665;-70
2023/05/10 07:52:06;;;;;;;0.88;0.60;;;;;;;15.52;100.00;95851.59;5043454;28;20217;-69
2023/05/10 07:54:33;;;;;;;0.50;0.50;;;;;;;15.38;100.00;95858.03;5043918;28;20197;-71
2023/05/10 07:57:00;;;;;;;1.13;0.43;;;;;;;15.40;100.00;95856.00;5043385;28;20748;-69
2023/05/10 07:59:27;;;;;;;0.50;0.50;;;;;;;15.43;100.00;95858.22;5043163;28;20684;-70
2023/05/10 08:01:55;;;;;;;0.50;0.35;;;;;;;15.48;100.00;95865.56;5043378;28;20232;-68
2023/05/10 08:04:21;;;;;;;0.63;0.47;;;;;;;15.54;100.00;95869.97;5043480;28;20311;-70
2023/05/10 08:06:48;;;;;;;1.15;0.95;;;;;;;15.39;100.00;95866.84;5043523;28;20221;-70
2023/05/10 08:09:15;;;;;;;0.50;0.50;;;;;;;15.50;100.00;95860.81;5042494;28;20939;-69
2023/05/10 08:11:41;;;;;;;0.52;0.52;;;;;;;15.60;100.00;95856.66;5043035;28;20721;-69
2023/05/10 08:14:08;;;;;;;4.57;0.50;;;;;;;15.62;100.00;95857.25;5042969;28;20205;-69
2023/05/10 08:16:34;;;;;;;0.35;0.32;;;;;;;15.68;100.00;95855.56;5042885;28;20220;-69
2023/05/10 08:19:02;;;;;;;0.30;0.30;;;;;;;15.95;100.00;95853.28;5042824;28;20222;-68
2023/05/10 08:21:29;;;;;;;0.77;0.73;;;;;;;15.89;100.00;95856.78;5044067;28;20197;-69
2023/05/10 08:23:55;;;;;;;0.40;0.40;;;;;;;15.75;100.00;95859.00;5042939;28;20666;-70
2023/05/10 08:26:22;;;;;;;0.40;0.40;;;;;;;15.49;100.00;95872.47;5042917;28;20228;-70
2023/05/10 08:28:48;;;;;;;1.33;0.60;;;;;;;15.50;100.00;95863.47;5042423;28;20290;-70
2023/05/10 08:31:15;;;;;;;0.50;0.50;;;;;;;15.48;100.00;95868.22;5042229;28;21205;-68
2023/05/10 08:33:42;;;;;;;0.43;0.43;;;;;;;15.43;100.00;95871.50;5043029;28;20291;-71
2023/05/10 08:36:10;;;;;;;0.45;0.38;;;;;;;15.32;100.00;95869.53;5042631;28;20228;-70
2023/05/10 08:38:38;;;;;;;0.70;0.60;;;;;;;15.25;100.00;95870.59;5042113;28;20538;-69
2023/05/10 08:41:06;;;;;;;0.77;0.60;;;;;;;15.30;100.00;95881.41;5042444;28;20197;-70
2023/05/10 08:43:32;;;;;;;0.50;0.50;;;;;;;15.23;100.00;95872.66;5042992;28;20577;-69
2023/05/10 08:46:01;;;;;;;0.77;0.77;;;;;;;15.40;100.00;95879.06;5042436;28;20235;-71
2023/05/10 08:48:30;;;;;;;0.85;0.60;;;;;;;15.54;100.00;95873.47;5041984;28;20569;-70
2023/05/10 08:51:00;;;;;;;1.15;0.70;;;;;;;15.60;100.00;95874.44;5042497;28;20528;-69
2023/05/10 08:53:29;;;;;;;0.98;0.77;;;;;;;15.78;100.00;95874.50;5042307;28;20330;-69
2023/05/10 08:55:56;;;;;;;0.47;0.47;;;;;;;15.84;100.00;95870.97;5042838;28;20256;-67
2023/05/10 08:58:22;;;;;;;0.40;0.40;;;;;;;15.77;100.00;95880.81;5043959;28;20197;-68
2023/05/10 09:00:51;;;;;;;0.80;0.80;;;;;;;15.96;100.00;95881.47;5044941;28;20198;-69
2023/05/10 09:03:18;;;;;;;0.35;0.35;;;;;;;15.94;99.26;95878.22;5044617;28;20236;-70
2023/05/10 09:05:45;;;;;;;0.30;0.30;;;;;;;15.99;97.76;95889.00;5043595;28;20224;-68
2023/05/10 09:08:13;;;;;;;0.40;0.40;;;;;;;15.88;95.09;95888.91;5042940;28;20205;-69
2023/05/10 09:10:43;;;;;;;0.40;0.40;;;;;;;16.08;97.45;95894.88;5043031;28;20197;-69
2023/05/10 09:13:11;;;;;;;0.30;0.30;;;;;;;16.20;96.95;95888.59;5041981;28;20716;-70
2023/05/10 09:15:38;;;;;;;0.30;0.30;;;;;;;16.32;95.87;95886.06;5042070;28;20225;-69
2023/05/10 09:18:04;;;;;;;0.30;0.30;;;;;;;16.38;94.50;95879.88;5041715;28;20197;-69
2023/05/10 09:20:31;;;;;;;0.43;0.40;;;;;;;16.62;92.74;95888.59;5041996;28;20889;-69
2023/05/10 09:22:58;;;;;;;0.50;0.40;;;;;;;16.63;91.29;95884.88;5042248;28;20201;-69
2023/05/10 09:25:24;;;;;;;1.02;0.85;;;;;;;16.76;91.22;95890.06;5042439;28;20207;-69
2023/05/10 09:27:53;;;;;;;0.50;0.50;;;;;;;16.81;88.24;95887.53;5041519;28;20582;-69
2023/05/10 09:30:26;;;;;;;0.22;0.22;;;;;;;16.72;89.64;95882.75;5041932;28;20551;-70
2023/05/10 09:32:53;;;;;;;0.65;0.35;;;;;;;16.52;88.22;95882.16;5042439;28;20650;-70
2023/05/10 09:35:21;;;;;;;0.20;0.20;;;;;;;16.63;88.98;95882.22;5042108;28;20448;-70
2023/05/10 09:37:50;;;;;;;0.30;0.30;;;;;;;16.62;87.47;95879.78;5041189;28;20242;-69
2023/05/10 09:40:18;;;;;;;0.30;0.30;;;;;;;16.40;85.87;95889.25;5042232;28;20205;-70
2023/05/10 09:42:55;;;;;;;0.40;0.40;;;;;;;16.37;89.42;95881.72;5046024;28;20197;-70
2023/05/10 09:45:22;;;;;;;0.30;0.30;;;;;;;16.52;87.67;95874.16;5045772;28;20205;-69
2023/05/10 09:47:49;;;;;;;3.50;1.17;;;;;;;16.51;91.11;95875.22;5045048;28;20528;-70
2023/05/10 09:50:16;;;;;;;0.30;0.30;;;;;;;16.45;90.82;95876.09;5045866;28;20777;-69
2023/05/10 09:52:50;;;;;;;0.35;0.30;;;;;;;16.76;86.92;95878.59;5046074;28;20228;-70
2023/05/10 09:55:18;;;;;;;0.40;0.40;;;;;;;16.45;89.08;95881.44;5045595;28;20197;-69
2023/05/10 09:57:45;;;;;;;0.50;0.50;;;;;;;16.56;88.81;95870.84;5045254;28;20197;-69
2023/05/10 10:00:18;;;;;;;3.90;0.45;;;;;;;16.60;87.16;95880.00;5045289;28;20205;-69
2023/05/10 10:02:46;;;;;;;0.20;0.20;;;;;;;16.74;85.22;95878.03;5045493;28;20193;-70
2023/05/10 10:05:13;;;;;;;0.20;0.20;;;;;;;16.73;80.81;95890.50;5045822;28;20206;-70
2023/05/10 10:07:40;;;;;;;0.50;0.40;;;;;;;16.93;82.60;95879.59;5044838;28;20525;-70
2023/05/10 10:10:11;;;;;;;0.47;0.20;;;;;;;16.88;77.60;95872.31;5045252;28;20201;-69
2023/05/10 10:12:37;;;;;;;0.17;0.17;;;;;;;17.18;80.24;95875.78;5045302;28;20268;-70
2023/05/10 10:15:06;;;;;;;0.35;0.30;;;;;;;17.12;78.80;95877.50;5045646;28;20205;-70
2023/05/10 10:17:37;;;;;;;0.30;0.30;;;;;;;17.02;78.69;95870.28;5044728;28;20705;-69
2023/05/10 10:20:05;;;;;;;0.40;0.40;;;;;;;17.11;79.12;95878.53;5045487;28;20275;-69
2023/05/10 10:22:31;;;;;;;0.65;0.57;;;;;;;16.82;76.32;95883.03;5045102;28;20669;-70
2023/05/10 10:24:58;;;;;;;0.40;0.40;;;;;;;16.87;77.79;95876.00;5045136;28;20207;-70
2023/05/10 10:27:27;;;;;;;0.50;0.50;;;;;;;17.22;80.24;95879.63;5044556;28;20221;-70
2023/05/10 10:30:02;;;;;;;0.20;0.20;;;;;;;17.54;78.57;95883.69;5045219;28;20573;-70
2023/05/10 10:32:43;;;;;;;0.30;0.30;;;;;;;17.32;78.71;95878.09;5044831;28;20915;-70
2023/05/10 10:35:10;;;;;;;0.20;0.20;;;;;;;16.99;77.19;95879.53;5044944;28;20225;-70
2023/05/10 10:37:45;;;;;;;0.40;0.30;;;;;;;17.00;76.99;95881.16;5044241;28;20224;-69
2023/05/10 10:40:24;;;;;;;0.30;0.30;;;;;;;17.20;77.80;95877.19;5044979;28;20233;-69
2023/05/10 10:42:51;;;;;;;0.20;0.20;;;;;;;17.23;77.60;95882.09;5045092;28;20293;-69
2023/05/10 10:45:17;;;;;;;0.28;0.20;;;;;;;17.40;76.06;95882.25;5044700;28;20691;-69
2023/05/10 10:47:45;;;;;;;0.30;0.30;;;;;;;17.67;77.90;95878.97;5044308;28;20197;-69
2023/05/10 10:50:13;;;;;;;0.30;0.30;;;;;;;17.45;74.28;95875.22;5044448;28;20201;-69
2023/05/10 10:52:41;;;;;;;0.20;0.20;;;;;;;17.42;76.73;95875.66;5044142;28;20225;-69
2023/05/10 10:55:09;;;;;;;0.30;0.30;;;;;;;17.37;75.02;95882.72;5044635;28;20201;-69
2023/05/10 10:57:49;;;;;;;1.65;1.00;;;;;;;17.42;75.69;95878.31;5044096;28;20587;-69
2023/05/10 11:00:21;;;;;;;0.35;0.35;;;;;;;17.59;75.90;95876.66;5044722;28;20564;-69
2023/05/10 11:02:51;;;;;;;0.20;0.20;;;;;;;17.28;73.45;95881.41;5044196;28;20193;-69
2023/05/10 11:05:45;;;;;;;0.35;0.35;;;;;;;17.25;75.77;95882.69;5044441;28;20205;-69
2023/05/10 11:08:14;;;;;;;0.20;0.20;;;;;;;17.27;75.75;95880.63;5044028;28;20247;-69
2023/05/10 11:10:51;;;;;;;0.30;0.30;;;;;;;17.11;77.18;95883.06;5044413;28;20201;-69
2023/05/10 11:13:28;;;;;;;0.20;0.20;;;;;;;17.28;75.48;95890.22;5044368;28;20315;-69
2023/05/10 11:15:58;;;;;;;0.20;0.20;;;;;;;17.15;75.21;95884.22;5044199;28;20306;-69
2023/05/10 11:18:28;;;;;;;0.25;0.25;;;;;;;17.23;77.18;95892.72;5043630;28;20205;-69
2023/05/10 11:20:58;;;;;;;0.20;0.20;;;;;;;17.51;77.21;95878.81;5043901;28;20205;-70
2023/05/10 11:23:31;;;;;;;0.30;0.30;;;;;;;17.77;77.56;95887.25;5044020;28;20233;-70
2023/05/10 11:25:59;;;;;;;0.20;0.20;;;;;;;17.28;76.09;95887.53;5044347;28;20221;-70
2023/05/10 11:28:27;;;;;;;0.20;0.20;;;;;;;17.37;75.13;95888.03;5043621;28;20844;-69
2023/05/10 11:30:54;;;;;;;0.35;0.30;;;;;;;17.39;75.39;95883.31;5043432;28;20267;-70